Time;durP1;ratioP1;P1;durP2;ratioP2;P2;SDS_P1;SDS_P2;PMS_P1;PMS_P2;Temp;Humidity;BMP_temperature;BMP_pressure;BME280_temperature;BME280_humidity;BME280_pressure;Samples;Min_cycle;Max_cycle;Signal;HPM_P1;HPM_P2
2022/07/01 00:00:52;;;;;;;8.97;7.97;;;21.60;99.90;;;;;;5222906;28;20220;-45
2022/07/01 00:03:23;;;;;;;9.63;8.80;;;21.60;99.90;;;;;;5195841;28;20261;-45
2022/07/01 00:05:54;;;;;;;12.83;11.40;;;21.60;99.90;;;;;;5221692;28;20636;-44
2022/07/01 00:08:24;;;;;;;12.80;11.20;;;21.60;99.90;;;;;;5212007;28;20197;-45
2022/07/01 00:10:55;;;;;;;14.17;10.87;;;21.60;99.90;;;;;;5198707;28;20609;-44
2022/07/01 00:13:25;;;;;;;10.67;9.57;;;21.60;99.90;;;;;;5192989;28;20210;-46
2022/07/01 00:15:56;;;;;;;12.43;11.10;;;21.60;99.90;;;;;;5215644;28;20179;-45
2022/07/01 00:18:26;;;;;;;17.70;12.37;;;21.60;99.90;;;;;;5223309;28;20262;-45
2022/07/01 00:20:57;;;;;;;13.20;11.43;;;21.50;99.90;;;;;;5201114;28;20186;-46
2022/07/01 00:23:28;;;;;;;11.70;10.17;;;21.50;99.90;;;;;;5199836;28;20214;-47
2022/07/01 00:25:59;;;;;;;18.00;12.00;;;21.40;99.90;;;;;;5186042;28;20183;-46
2022/07/01 00:28:29;;;;;;;17.03;11.47;;;21.40;99.90;;;;;;5220624;28;20202;-44
2022/07/01 00:31:00;;;;;;;16.20;13.07;;;21.40;99.90;;;;;;5206863;28;20199;-46
2022/07/01 00:33:30;;;;;;;16.07;13.10;;;21.40;99.90;;;;;;5217890;28;20278;-46
2022/07/01 00:36:01;;;;;;;13.23;11.90;;;21.30;99.90;;;;;;5202793;28;20183;-48
2022/07/01 00:38:32;;;;;;;25.30;13.40;;;21.30;99.90;;;;;;5219036;28;20266;-45
2022/07/01 00:41:02;;;;;;;14.43;12.00;;;21.30;99.90;;;;;;5218937;28;20260;-46
2022/07/01 00:43:38;;;;;;;14.57;12.07;;;21.30;99.90;;;;;;5218283;28;20273;-45
2022/07/01 00:46:08;;;;;;;14.80;12.17;;;21.20;99.90;;;;;;5199145;28;20187;-48
2022/07/01 00:48:40;;;;;;;14.83;12.80;;;21.20;99.90;;;;;;5190964;28;20454;-47
2022/07/01 00:51:10;;;;;;;14.83;11.97;;;21.20;99.90;;;;;;5199893;28;20210;-46
2022/07/01 00:53:41;;;;;;;14.33;12.80;;;21.20;99.90;;;;;;5204909;28;20449;-45
2022/07/01 00:56:13;;;;;;;21.17;14.30;;;21.20;99.90;;;;;;5224149;28;20270;-47
2022/07/01 00:58:44;;;;;;;15.10;13.47;;;21.20;99.90;;;;;;5220218;28;20184;-45
2022/07/01 01:01:15;;;;;;;18.10;13.97;;;21.20;99.90;;;;;;5223006;28;20437;-46
2022/07/01 01:03:45;;;;;;;21.73;14.50;;;21.20;99.90;;;;;;5201965;28;20461;-44
2022/07/01 01:06:16;;;;;;;18.70;15.00;;;21.10;99.90;;;;;;5221273;28;20183;-47
2022/07/01 01:08:48;;;;;;;19.57;15.33;;;21.10;99.90;;;;;;5208084;28;20572;-44
2022/07/01 01:11:20;;;;;;;20.50;14.93;;;21.10;99.90;;;;;;5214315;28;20209;-44
2022/07/01 01:13:50;;;;;;;20.13;14.33;;;21.10;99.90;;;;;;5222753;28;20502;-45
2022/07/01 01:16:22;;;;;;;16.43;13.30;;;21.10;99.90;;;;;;5214145;28;20437;-46
2022/07/01 01:18:53;;;;;;;16.73;13.30;;;21.10;99.90;;;;;;5214010;28;20284;-46
2022/07/01 01:21:25;;;;;;;26.80;14.43;;;21.00;99.90;;;;;;5225474;28;20441;-44
2022/07/01 01:23:57;;;;;;;19.70;14.80;;;21.00;99.90;;;;;;5192413;28;20599;-45
2022/07/01 01:26:28;;;;;;;20.67;14.10;;;21.00;99.90;;;;;;5221808;28;20434;-47
2022/07/01 01:28:58;;;;;;;18.43;15.53;;;21.00;99.90;;;;;;5224400;28;20545;-45
2022/07/01 01:31:31;;;;;;;23.07;16.07;;;21.00;99.90;;;;;;5191861;28;20206;-45
2022/07/01 01:34:01;;;;;;;20.43;15.13;;;21.00;99.90;;;;;;5228359;28;20325;-45
2022/07/01 01:36:32;;;;;;;21.33;15.90;;;21.00;99.90;;;;;;5214934;28;20433;-45
2022/07/01 01:39:14;;;;;;;22.40;17.17;;;21.00;99.90;;;;;;5223880;28;20228;-44
2022/07/01 01:41:45;;;;;;;22.80;17.20;;;21.00;99.90;;;;;;5190201;28;20171;-46
2022/07/01 01:44:16;;;;;;;19.53;16.63;;;21.00;99.90;;;;;;5220791;28;20499;-45
2022/07/01 01:46:46;;;;;;;21.80;17.37;;;21.00;99.90;;;;;;5207814;28;20442;-45
2022/07/01 01:49:17;;;;;;;24.87;16.97;;;21.10;99.90;;;;;;5206322;28;20183;-45
2022/07/01 01:51:48;;;;;;;26.63;15.77;;;21.00;99.90;;;;;;5217331;28;20241;-44
2022/07/01 01:54:19;;;;;;;20.70;15.20;;;21.00;99.90;;;;;;5203179;28;20736;-45
2022/07/01 01:56:49;;;;;;;29.63;17.57;;;21.00;99.90;;;;;;5209852;28;20525;-45
2022/07/01 01:59:20;;;;;;;24.17;17.57;;;21.00;99.90;;;;;;5201348;28;20186;-45
2022/07/01 02:01:50;;;;;;;23.53;17.37;;;21.00;99.90;;;;;;5223379;28;20186;-46
2022/07/01 02:04:23;;;;;;;27.73;18.27;;;21.00;99.90;;;;;;5229008;28;20691;-46
2022/07/01 02:06:53;;;;;;;22.17;16.77;;;21.00;99.90;;;;;;5220446;28;20175;-45
2022/07/01 02:09:25;;;;;;;22.90;18.10;;;21.00;99.90;;;;;;5199721;28;20799;-45
2022/07/01 02:11:55;;;;;;;25.30;16.90;;;21.00;99.90;;;;;;5215628;28;20260;-46
2022/07/01 02:14:27;;;;;;;24.63;18.43;;;20.90;99.90;;;;;;5219765;28;20450;-45
2022/07/01 02:16:57;;;;;;;23.70;17.50;;;20.90;99.90;;;;;;5210022;28;20182;-45
2022/07/01 02:19:28;;;;;;;23.50;18.53;;;20.90;99.90;;;;;;5188267;28;20425;-46
2022/07/01 02:21:59;;;;;;;24.57;19.40;;;20.90;99.90;;;;;;5218901;28;20208;-44
2022/07/01 02:24:29;;;;;;;25.33;19.23;;;20.90;99.90;;;;;;5199929;28;20563;-45
2022/07/01 02:27:00;;;;;;;24.20;18.20;;;20.90;99.90;;;;;;5221005;28;20190;-45
2022/07/01 02:29:30;;;;;;;24.33;18.63;;;20.80;99.90;;;;;;5218406;28;20198;-45
2022/07/01 02:32:01;;;;;;;19.33;17.17;;;20.80;99.90;;;;;;5199920;28;20206;-45
2022/07/01 02:34:32;;;;;;;22.93;18.70;;;20.80;99.90;;;;;;5218226;28;20628;-46
2022/07/01 02:37:02;;;;;;;26.83;17.83;;;20.80;99.90;;;;;;5223456;28;20287;-46
2022/07/01 02:39:33;;;;;;;33.40;18.50;;;20.80;99.90;;;;;;5185323;28;20279;-46
2022/07/01 02:44:54;;;;;;;23.57;18.17;;;20.90;99.90;;;;;;5216765;28;20257;-45
2022/07/01 02:47:31;;;;;;;25.83;19.30;;;20.90;99.90;;;;;;5215842;28;20801;-45
2022/07/01 02:50:04;;;;;;;27.90;19.40;;;20.90;99.90;;;;;;5203974;28;20582;-45
2022/07/01 02:52:35;;;;;;;22.27;17.40;;;21.00;99.90;;;;;;5220455;28;20747;-46
2022/07/01 02:55:11;;;;;;;26.03;19.50;;;21.00;99.90;;;;;;5212750;28;20438;-44
2022/07/01 02:57:43;;;;;;;25.77;19.47;;;21.00;99.90;;;;;;5203957;28;20455;-43
2022/07/01 03:00:14;;;;;;;26.77;20.50;;;21.00;99.90;;;;;;5212997;28;20437;-45
2022/07/01 03:02:44;;;;;;;37.33;21.13;;;21.00;99.90;;;;;;5219412;28;20546;-44
2022/07/01 03:05:15;;;;;;;25.03;20.30;;;21.00;99.90;;;;;;5206705;28;20911;-45
2022/07/01 03:07:46;;;;;;;25.23;18.23;;;21.00;99.90;;;;;;5201413;28;20236;-45
2022/07/01 03:10:16;;;;;;;26.90;19.37;;;21.00;99.90;;;;;;5228824;28;20202;-43
2022/07/01 03:12:47;;;;;;;23.07;17.80;;;21.10;99.90;;;;;;5211081;28;20206;-45
2022/07/01 03:15:18;;;;;;;22.37;18.70;;;21.10;99.90;;;;;;5226809;28;20185;-44
2022/07/01 03:17:48;;;;;;;29.90;20.53;;;21.10;99.90;;;;;;5221206;28;20615;-44
2022/07/01 03:20:19;;;;;;;28.03;19.77;;;21.10;99.90;;;;;;5202444;28;20179;-45
2022/07/01 03:22:50;;;;;;;25.60;19.90;;;21.20;99.90;;;;;;5233016;22;20237;-48
2022/07/01 03:25:21;;;;;;;25.17;19.60;;;21.20;99.90;;;;;;5227473;28;20577;-49
2022/07/01 03:27:51;;;;;;;25.67;19.23;;;21.20;99.90;;;;;;5209783;28;20428;-48
2022/07/01 03:30:22;;;;;;;37.10;20.20;;;21.30;99.90;;;;;;5238815;28;20218;-47
2022/07/01 03:32:52;;;;;;;32.60;20.80;;;21.30;99.90;;;;;;5242567;28;20273;-47
2022/07/01 03:35:35;;;;;;;28.20;20.37;;;21.30;99.90;;;;;;5203045;28;20175;-47
2022/07/01 03:38:07;;;;;;;28.13;21.13;;;21.40;99.90;;;;;;5202813;28;20582;-48
2022/07/01 03:40:38;;;;;;;27.20;18.53;;;21.40;99.90;;;;;;5222290;28;20452;-48
2022/07/01 03:43:09;;;;;;;24.60;17.97;;;21.40;99.90;;;;;;5222800;28;20953;-52
2022/07/01 03:45:39;;;;;;;25.27;19.30;;;21.50;99.90;;;;;;5221268;28;20442;-47
2022/07/01 03:48:10;;;;;;;27.30;20.13;;;21.50;99.90;;;;;;5203230;28;20654;-48
2022/07/01 03:50:41;;;;;;;24.10;19.20;;;21.50;99.90;;;;;;5212600;28;20222;-48
2022/07/01 03:56:01;;;;;;;42.93;20.60;;;21.60;99.90;;;;;;5212323;28;20190;-49
2022/07/01 03:58:31;;;;;;;30.27;19.80;;;21.60;99.90;;;;;;5217238;28;21022;-48
2022/07/01 04:01:02;;;;;;;26.70;19.67;;;21.70;99.90;;;;;;5209679;28;21124;-47
2022/07/01 04:03:32;;;;;;;28.07;20.27;;;21.70;99.90;;;;;;5219583;28;20211;-47
2022/07/01 04:06:03;;;;;;;25.37;18.30;;;21.70;99.90;;;;;;5213456;28;20215;-48
2022/07/01 04:08:34;;;;;;;28.23;19.90;;;21.70;99.90;;;;;;5194038;28;20209;-47
2022/07/01 04:11:08;;;;;;;25.43;18.53;;;21.80;99.90;;;;;;5202789;28;20289;-48
2022/07/01 04:13:39;;;;;;;23.43;17.70;;;21.90;99.90;;;;;;5191171;28;20195;-48
2022/07/01 04:16:09;;;;;;;33.07;20.80;;;22.00;99.90;;;;;;5219032;28;20471;-47
2022/07/01 04:18:40;;;;;;;28.73;19.20;;;22.10;99.90;;;;;;5206103;28;20442;-48
2022/07/01 04:24:00;;;;;;;24.13;19.00;;;22.30;99.90;;;;;;5215983;28;20710;-46
2022/07/01 04:26:31;;;;;;;33.90;18.70;;;22.40;99.90;;;;;;5211154;28;20458;-48
2022/07/01 04:29:03;;;;;;;27.83;19.13;;;22.60;99.90;;;;;;5196183;28;20320;-47
2022/07/01 04:31:37;;;;;;;27.07;19.70;;;22.80;99.90;;;;;;5218576;28;20215;-48
2022/07/01 04:34:09;;;;;;;28.23;18.60;;;23.00;99.90;;;;;;5210581;28;20484;-48
2022/07/01 04:36:40;;;;;;;26.07;18.37;;;23.10;99.90;;;;;;5209754;28;20930;-48
2022/07/01 04:39:10;;;;;;;26.33;18.70;;;23.30;99.90;;;;;;5211628;28;20476;-49
2022/07/01 04:41:59;;;;;;;25.90;18.50;;;23.40;99.90;;;;;;5192359;28;20219;-48
2022/07/01 04:44:37;;;;;;;25.53;18.30;;;23.60;99.90;;;;;;5225306;28;20221;-48
2022/07/01 04:47:07;;;;;;;27.80;18.77;;;23.80;99.90;;;;;;5229746;28;20564;-47
2022/07/01 04:49:38;;;;;;;29.73;17.93;;;24.00;99.90;;;;;;5228453;28;20801;-47
2022/07/01 04:52:09;;;;;;;29.33;17.20;;;24.20;99.90;;;;;;5221446;28;20210;-48
2022/07/01 04:54:41;;;;;;;31.47;16.37;;;24.60;99.90;;;;;;5223592;28;20211;-48
2022/07/01 04:57:11;;;;;;;25.93;16.43;;;24.80;99.90;;;;;;5199724;28;20442;-47
2022/07/01 04:59:42;;;;;;;20.50;16.47;;;25.20;99.90;;;;;;5221915;28;20520;-47
2022/07/01 05:02:12;;;;;;;22.77;17.07;;;25.50;99.90;;;;;;5196044;28;20202;-48
2022/07/01 05:04:43;;;;;;;29.10;15.70;;;25.70;99.90;;;;;;5206227;28;20219;-47
2022/07/01 05:07:29;;;;;;;23.50;14.93;;;26.20;99.90;;;;;;5216664;28;20195;-49
2022/07/01 05:09:59;;;;;;;28.50;16.47;;;26.80;99.90;;;;;;5217831;28;20191;-49
2022/07/01 05:12:30;;;;;;;21.27;13.87;;;27.60;99.90;;;;;;5211843;28;20450;-49
2022/07/01 05:15:01;;;;;;;20.10;14.50;;;28.20;99.90;;;;;;5215267;28;20552;-49
2022/07/01 05:23:11;;;;;;;17.93;12.00;;;28.90;99.90;;;;;;5215733;28;20572;-47
2022/07/01 05:25:42;;;;;;;15.43;11.90;;;29.70;99.90;;;;;;5201149;28;20532;-50
2022/07/01 05:28:13;;;;;;;18.23;12.17;;;30.80;94.70;;;;;;5218557;28;20190;-49
2022/07/01 05:30:43;;;;;;;14.77;12.70;;;31.90;88.40;;;;;;5187180;28;20213;-48
2022/07/01 05:33:14;;;;;;;19.10;13.93;;;32.80;77.90;;;;;;5207490;28;20203;-49
2022/07/01 05:35:44;;;;;;;18.60;11.50;;;33.60;69.60;;;;;;5210984;28;20187;-49
2022/07/01 05:38:15;;;;;;;11.13;9.97;;;34.10;65.20;;;;;;5213727;28;20186;-49
2022/07/01 05:40:46;;;;;;;16.15;12.73;;;35.10;61.00;;;;;;5224509;28;20205;-49
2022/07/01 05:43:16;;;;;;;11.02;10.02;;;36.00;55.90;;;;;;5211963;28;20213;-51
2022/07/01 05:45:47;;;;;;;13.30;9.52;;;36.70;53.50;;;;;;5213267;28;20182;-49
2022/07/01 05:48:17;;;;;;;12.77;10.98;;;37.50;51.20;;;;;;5205775;28;20186;-48
2022/07/01 05:50:49;;;;;;;10.88;9.82;;;37.60;48.80;;;;;;5211490;28;20240;-51
2022/07/01 05:53:19;;;;;;;11.55;10.30;;;36.10;50.60;;;;;;5214888;28;20205;-49
2022/07/01 05:55:50;;;;;;;14.93;11.73;;;34.00;54.40;;;;;;5225893;28;20179;-48
2022/07/01 05:58:21;;;;;;;17.30;11.15;;;32.50;57.30;;;;;;5215794;28;20211;-48
2022/07/01 06:00:51;;;;;;;14.50;10.90;;;31.30;61.40;;;;;;5194225;28;20233;-50
2022/07/01 06:03:22;;;;;;;20.87;12.40;;;30.40;63.80;;;;;;5209277;28;20233;-48
2022/07/01 06:05:52;;;;;;;14.87;10.57;;;29.80;66.40;;;;;;5198589;28;20191;-49
2022/07/01 06:08:23;;;;;;;14.17;11.40;;;29.40;69.00;;;;;;5219265;28;20194;-48
2022/07/01 06:10:53;;;;;;;15.53;11.50;;;29.10;71.50;;;;;;5214071;28;20729;-49
2022/07/01 06:13:24;;;;;;;16.13;11.57;;;28.90;73.40;;;;;;5216039;28;20191;-49
2022/07/01 06:15:58;;;;;;;17.17;11.60;;;28.90;75.10;;;;;;5185159;28;20183;-49
2022/07/01 06:18:28;;;;;;;14.10;11.63;;;28.80;76.30;;;;;;5198242;28;20183;-49
2022/07/01 06:20:59;;;;;;;15.77;11.73;;;28.90;77.10;;;;;;5212547;28;20564;-49
2022/07/01 06:23:30;;;;;;;19.23;12.40;;;28.70;78.00;;;;;;5216569;28;20214;-48
2022/07/01 06:26:00;;;;;;;14.27;11.93;;;28.90;78.40;;;;;;5207647;28;20282;-51
2022/07/01 06:28:31;;;;;;;19.33;12.20;;;29.10;78.10;;;;;;5217651;28;20270;-49
2022/07/01 06:31:01;;;;;;;17.27;13.07;;;28.90;79.00;;;;;;5208977;28;20202;-49
2022/07/01 06:33:32;;;;;;;23.30;13.90;;;28.40;81.30;;;;;;5217667;28;20298;-49
2022/07/01 06:36:02;;;;;;;24.00;14.53;;;27.70;85.40;;;;;;5200799;28;20202;-48
2022/07/01 06:38:33;;;;;;;21.90;13.03;;;27.30;90.00;;;;;;5216203;28;20233;-49
2022/07/01 06:43:57;;;;;;;18.83;14.27;;;26.90;93.60;;;;;;5216876;28;20232;-47
2022/07/01 06:46:28;;;;;;;23.27;14.57;;;26.80;96.10;;;;;;5214402;28;20441;-48
2022/07/01 06:48:59;;;;;;;24.73;14.10;;;26.50;98.50;;;;;;5188708;28;20448;-48
2022/07/01 06:51:30;;;;;;;24.10;16.30;;;26.40;99.90;;;;;;5214630;28;20465;-48
2022/07/01 06:54:00;;;;;;;24.73;15.77;;;26.30;99.90;;;;;;5199895;28;20210;-50
2022/07/01 06:56:31;;;;;;;20.77;15.67;;;26.20;99.90;;;;;;5216074;28;20635;-49
2022/07/01 06:59:01;;;;;;;21.40;15.47;;;26.30;99.90;;;;;;5188906;28;20179;-49
2022/07/01 07:01:32;;;;;;;19.10;15.47;;;26.00;99.90;;;;;;5196396;28;20186;-48
2022/07/01 07:04:03;;;;;;;27.23;17.33;;;26.00;99.90;;;;;;5218736;28;20202;-49
2022/07/01 07:06:34;;;;;;;23.50;15.03;;;26.10;99.90;;;;;;5216924;28;20179;-48
2022/07/01 07:09:04;;;;;;;15.97;13.00;;;26.70;99.90;;;;;;5190453;28;20550;-49
2022/07/01 07:11:35;;;;;;;19.00;12.50;;;27.50;99.90;;;;;;5215704;28;20211;-49
2022/07/01 07:14:05;;;;;;;17.50;13.70;;;28.70;99.90;;;;;;5209265;28;20202;-49
2022/07/01 07:16:36;;;;;;;20.70;14.20;;;29.20;95.30;;;;;;5204252;28;20205;-47
2022/07/01 07:19:07;;;;;;;17.53;12.80;;;29.40;92.70;;;;;;5207529;28;20174;-50
2022/07/01 07:21:38;;;;;;;17.80;12.43;;;30.00;91.90;;;;;;5196724;28;20186;-49
2022/07/01 07:24:08;;;;;;;19.63;13.57;;;31.80;79.60;;;;;;5211051;28;20479;-50
2022/07/01 07:26:39;;;;;;;19.97;11.93;;;32.20;69.50;;;;;;5201938;28;20198;-50
2022/07/01 07:29:10;;;;;;;15.80;12.33;;;31.70;68.10;;;;;;5226980;28;20599;-50
2022/07/01 07:31:40;;;;;;;17.03;11.80;;;30.90;69.50;;;;;;5204479;28;20218;-50
2022/07/01 07:34:11;;;;;;;16.10;11.33;;;30.40;70.10;;;;;;5218265;28;20324;-48
2022/07/01 07:36:41;;;;;;;11.77;9.03;;;30.00;70.80;;;;;;5218704;28;20626;-49
2022/07/01 07:39:12;;;;;;;15.57;10.60;;;30.70;67.40;;;;;;5200684;28;20181;-49
2022/07/01 07:41:43;;;;;;;18.60;10.37;;;31.60;63.10;;;;;;5218448;28;20200;-51
2022/07/01 07:44:13;;;;;;;18.47;10.10;;;32.20;61.90;;;;;;5215053;28;20229;-48
2022/07/01 07:46:44;;;;;;;13.67;10.77;;;33.00;58.20;;;;;;5219740;28;20209;-51
2022/07/01 07:49:14;;;;;;;17.40;12.50;;;32.10;58.60;;;;;;5205580;28;20282;-49
2022/07/01 07:51:45;;;;;;;19.53;10.80;;;31.40;60.50;;;;;;5205644;28;20486;-50
2022/07/01 07:54:16;;;;;;;14.40;11.40;;;31.00;61.60;;;;;;5202092;28;20285;-48
2022/07/01 07:56:46;;;;;;;14.60;11.90;;;30.40;62.00;;;;;;5219493;28;20187;-49
2022/07/01 07:59:17;;;;;;;14.47;10.00;;;29.70;65.00;;;;;;5202633;28;20232;-49
2022/07/01 08:01:48;;;;;;;13.40;10.83;;;29.80;66.50;;;;;;5207270;28;20627;-49
2022/07/01 08:04:18;;;;;;;15.70;9.77;;;30.20;63.80;;;;;;5223886;28;20214;-49
2022/07/01 08:06:49;;;;;;;13.93;9.60;;;30.00;63.20;;;;;;5208243;28;20197;-47
2022/07/01 08:09:19;;;;;;;9.60;8.60;;;30.50;63.40;;;;;;5212072;28;20179;-49
2022/07/01 08:11:50;;;;;;;8.63;7.73;;;31.20;61.00;;;;;;5195563;28;20210;-51
2022/07/01 08:14:21;;;;;;;18.43;8.63;;;31.60;59.00;;;;;;5225529;28;20274;-47
2022/07/01 08:16:52;;;;;;;8.30;7.60;;;30.90;59.10;;;;;;5224620;28;20185;-50
2022/07/01 08:19:23;;;;;;;9.43;8.43;;;30.20;60.70;;;;;;5201008;28;20655;-48
2022/07/01 08:21:53;;;;;;;12.60;9.77;;;29.30;62.60;;;;;;5227607;28;20305;-49
2022/07/01 08:24:24;;;;;;;13.50;9.67;;;28.60;65.00;;;;;;5212264;28;20704;-50
2022/07/01 08:26:55;;;;;;;9.30;8.47;;;28.00;67.20;;;;;;5210808;28;20602;-49
2022/07/01 08:29:25;;;;;;;7.77;7.10;;;27.70;69.00;;;;;;5204773;28;20532;-49
2022/07/01 08:31:56;;;;;;;8.77;7.87;;;27.60;70.10;;;;;;5221698;28;20659;-48
2022/07/01 08:34:27;;;;;;;12.47;8.07;;;27.80;70.30;;;;;;5224772;28;20245;-48
2022/07/01 08:36:57;;;;;;;9.07;8.27;;;28.60;70.30;;;;;;5201796;28;20178;-50
2022/07/01 08:39:28;;;;;;;8.77;8.03;;;29.90;65.40;;;;;;5199810;28;20631;-51
2022/07/01 08:41:58;;;;;;;8.43;7.63;;;30.30;62.40;;;;;;5216007;28;20182;-49
2022/07/01 08:44:30;;;;;;;8.50;7.63;;;30.60;62.00;;;;;;5208564;28;20206;-50
2022/07/01 08:47:02;;;;;;;9.20;8.30;;;31.20;60.20;;;;;;5218756;28;20182;-48
2022/07/01 08:49:33;;;;;;;9.67;7.40;;;31.00;59.80;;;;;;5220839;28;20189;-49
2022/07/01 08:52:04;;;;;;;11.47;9.10;;;32.20;58.50;;;;;;5224097;28;20215;-50
2022/07/01 08:54:37;;;;;;;11.63;8.67;;;32.60;57.10;;;;;;5200807;28;20685;-48
2022/07/01 08:57:08;;;;;;;10.07;9.07;;;32.20;56.10;;;;;;5219082;28;20191;-48
2022/07/01 08:59:38;;;;;;;9.60;8.70;;;31.80;56.90;;;;;;5197523;28;20669;-49
2022/07/01 09:02:10;;;;;;;9.57;8.70;;;31.40;58.00;;;;;;5219111;28;20197;-48
2022/07/01 09:04:40;;;;;;;8.93;8.00;;;31.20;58.10;;;;;;5199138;28;20284;-48
2022/07/01 09:07:11;;;;;;;11.33;9.20;;;30.90;59.30;;;;;;5221977;28;20912;-50
2022/07/01 09:09:42;;;;;;;10.43;9.40;;;30.40;59.90;;;;;;5201601;28;20179;-49
2022/07/01 09:12:15;;;;;;;10.67;8.10;;;30.40;61.20;;;;;;5218593;28;20295;-51
2022/07/01 09:14:46;;;;;;;18.10;10.63;;;30.60;60.90;;;;;;5201984;28;20440;-49
2022/07/01 09:17:20;;;;;;;11.50;9.20;;;31.00;59.80;;;;;;5218852;28;20182;-48
2022/07/01 09:19:50;;;;;;;11.53;7.00;;;30.90;59.40;;;;;;5229139;28;20204;-50
2022/07/01 09:22:21;;;;;;;8.17;7.40;;;30.50;60.20;;;;;;5200190;28;20194;-50
2022/07/01 09:24:52;;;;;;;10.23;9.33;;;30.10;60.50;;;;;;5206550;28;20639;-48
2022/07/01 09:27:26;;;;;;;9.17;8.30;;;29.30;62.00;;;;;;5218348;28;20187;-51
2022/07/01 09:29:56;;;;;;;9.63;8.60;;;29.10;63.90;;;;;;5217582;28;20194;-49
2022/07/01 09:32:27;;;;;;;6.63;4.77;;;28.60;64.40;;;;;;5205965;28;20463;-49
2022/07/01 09:34:57;;;;;;;10.93;4.50;;;27.90;66.50;;;;;;5200970;28;20643;-49
2022/07/01 09:37:30;;;;;;;8.20;2.80;;;27.50;68.60;;;;;;5214964;28;20248;-48
2022/07/01 09:40:00;;;;;;;4.50;2.20;;;27.00;70.20;;;;;;5223121;28;20554;-49
2022/07/01 09:42:32;;;;;;;2.50;2.30;;;26.60;71.40;;;;;;5200143;28;20446;-48
2022/07/01 09:45:07;;;;;;;7.20;2.53;;;26.20;73.40;;;;;;5216583;28;20270;-48
2022/07/01 09:47:44;;;;;;;2.60;2.37;;;25.80;73.70;;;;;;5218646;28;20528;-50
2022/07/01 09:50:15;;;;;;;4.37;1.77;;;25.50;75.10;;;;;;5216635;28;20495;-48
2022/07/01 09:52:46;;;;;;;1.50;1.27;;;25.20;76.50;;;;;;5221804;28;20458;-48
2022/07/01 09:55:17;;;;;;;3.43;1.67;;;25.10;77.90;;;;;;5207147;28;20198;-48
2022/07/01 09:57:48;;;;;;;3.90;1.43;;;24.90;78.80;;;;;;5205278;28;20438;-49
2022/07/01 10:00:18;;;;;;;1.33;1.20;;;24.60;80.20;;;;;;5212810;28;20192;-52
2022/07/01 10:02:50;;;;;;;1.20;1.20;;;24.10;83.00;;;;;;5199669;28;20256;-50
2022/07/01 10:05:24;;;;;;;2.40;1.50;;;23.70;88.20;;;;;;5218610;28;20722;-49
2022/07/01 10:08:14;;;;;;;4.00;3.23;;;23.10;93.90;;;;;;5223658;28;20786;-49
2022/07/01 10:11:10;;;;;;;3.03;1.80;;;22.80;99.10;;;;;;5223324;28;20555;-50
2022/07/01 10:13:41;;;;;;;4.50;1.73;;;22.60;99.90;;;;;;5215698;28;20457;-49
2022/07/01 10:16:14;;;;;;;5.20;3.33;;;22.30;99.90;;;;;;5228221;28;20421;-52
2022/07/01 10:18:44;;;;;;;2.30;1.57;;;22.20;99.90;;;;;;5224462;28;20432;-49
2022/07/01 10:21:30;;;;;;;1.80;1.40;;;22.10;99.90;;;;;;5222625;28;20803;-48
2022/07/01 10:24:15;;;;;;;1.80;1.17;;;22.30;99.90;;;;;;5220129;28;20218;-50
2022/07/01 10:26:46;;;;;;;1.70;1.60;;;22.10;99.90;;;;;;5200587;28;20519;-49
2022/07/01 10:29:33;;;;;;;1.20;1.20;;;21.80;99.90;;;;;;5218722;28;20866;-50
2022/07/01 10:32:11;;;;;;;1.83;1.67;;;21.80;99.90;;;;;;5219515;28;20469;-50
2022/07/01 10:34:42;;;;;;;2.20;1.47;;;21.90;99.90;;;;;;5200510;28;20461;-50
2022/07/01 10:37:13;;;;;;;7.70;2.80;;;21.90;99.90;;;;;;5222740;28;20434;-50
2022/07/01 10:40:00;;;;;;;3.20;2.07;;;21.90;99.90;;;;;;5202120;28;20183;-48
2022/07/01 10:42:54;;;;;;;5.17;2.20;;;21.70;99.90;;;;;;5215811;28;20182;-51
2022/07/01 10:45:24;;;;;;;9.50;2.50;;;21.70;99.90;;;;;;5201070;28;20532;-50
2022/07/01 10:48:32;;;;;;;2.00;1.80;;;21.80;99.90;;;;;;5201597;28;20448;-50
2022/07/01 10:51:02;;;;;;;2.43;2.20;;;21.60;99.90;;;;;;5178652;28;20234;-50
2022/07/01 10:53:47;;;;;;;1.70;1.70;;;21.40;99.90;;;;;;5196519;28;20458;-48
2022/07/01 10:56:17;;;;;;;8.70;4.90;;;21.10;99.90;;;;;;5203697;28;20194;-51
2022/07/01 10:59:01;;;;;;;1.80;1.70;;;21.10;99.90;;;;;;5219174;28;20941;-48
2022/07/01 11:01:32;;;;;;;1.93;1.87;;;20.80;99.90;;;;;;5204473;28;20199;-49
2022/07/01 11:04:02;;;;;;;1.77;1.67;;;20.60;99.90;;;;;;5216373;28;20458;-49
2022/07/01 11:06:38;;;;;;;4.83;1.80;;;20.70;99.90;;;;;;5206858;28;20252;-48
2022/07/01 11:09:12;;;;;;;2.87;2.40;;;20.90;99.90;;;;;;5212943;28;20183;-52
2022/07/01 11:11:43;;;;;;;1.40;1.30;;;20.80;99.90;;;;;;5218728;28;20583;-49
2022/07/01 11:14:14;;;;;;;2.97;2.70;;;20.30;99.90;;;;;;5190776;28;20561;-49
2022/07/01 11:16:44;;;;;;;5.03;4.33;;;20.10;99.90;;;;;;5215340;28;20521;-52
2022/07/01 11:19:18;;;;;;;5.17;2.47;;;20.00;99.90;;;;;;5210502;28;20545;-51
2022/07/01 11:21:52;;;;;;;0.70;0.70;;;19.90;99.90;;;;;;5197380;28;20186;-49
2022/07/01 11:24:23;;;;;;;1.30;1.30;;;19.70;99.90;;;;;;5219321;28;20474;-49
2022/07/01 11:27:06;;;;;;;0.80;0.80;;;19.70;99.90;;;;;;5217537;28;20469;-48
2022/07/01 11:29:37;;;;;;;1.33;1.23;;;19.60;99.90;;;;;;5207804;28;20457;-49
2022/07/01 11:32:08;;;;;;;1.17;1.03;;;19.70;99.90;;;;;;5201044;28;20491;-48
2022/07/01 11:34:38;;;;;;;2.73;1.00;;;19.70;99.90;;;;;;5210354;28;20219;-51
2022/07/01 11:40:11;;;;;;;1.13;1.13;;;19.50;99.90;;;;;;5216698;28;20289;-49
2022/07/01 11:42:42;;;;;;;1.63;1.23;;;19.70;99.90;;;;;;5216798;28;20483;-48
2022/07/01 11:45:24;;;;;;;1.83;0.97;;;19.80;99.90;;;;;;5219457;28;21016;-51
2022/07/01 11:47:55;;;;;;;4.83;1.10;;;19.90;99.90;;;;;;5200588;28;20179;-49
2022/07/01 11:50:26;;;;;;;2.10;1.00;;;19.70;99.90;;;;;;5213553;28;20438;-50
2022/07/01 11:52:57;;;;;;;3.53;1.60;;;19.70;99.90;;;;;;5218739;28;20347;-47
2022/07/01 11:55:28;;;;;;;1.97;1.03;;;19.50;99.90;;;;;;5201567;28;20486;-52
2022/07/01 11:57:58;;;;;;;5.00;3.10;;;19.60;99.90;;;;;;5179395;28;20445;-51
2022/07/01 12:00:33;;;;;;;11.57;2.27;;;19.50;99.90;;;;;;5198891;28;20195;-48
2022/07/01 12:03:05;;;;;;;3.40;1.43;;;19.30;99.90;;;;;;5200543;28;20237;-49
2022/07/01 12:05:36;;;;;;;1.43;0.90;;;19.00;99.90;;;;;;5201167;28;20809;-50
2022/07/01 12:08:07;;;;;;;0.83;0.83;;;18.80;99.90;;;;;;5221200;28;20541;-54
2022/07/01 12:10:37;;;;;;;2.43;1.20;;;18.80;99.90;;;;;;5206108;28;20977;-50
2022/07/01 12:13:22;;;;;;;0.73;0.73;;;18.80;99.90;;;;;;5208776;28;20210;-48
2022/07/01 12:15:53;;;;;;;2.60;1.40;;;18.70;99.90;;;;;;5199567;28;20179;-50
2022/07/01 12:18:23;;;;;;;1.93;1.83;;;19.00;99.90;;;;;;5192472;28;20507;-50
2022/07/01 12:20:54;;;;;;;2.30;2.20;;;19.20;99.90;;;;;;5209384;28;20446;-48
2022/07/01 12:23:24;;;;;;;2.80;2.70;;;19.40;99.90;;;;;;5208475;28;20223;-50
2022/07/01 12:25:55;;;;;;;2.73;2.63;;;19.70;99.90;;;;;;5202547;28;20270;-50
2022/07/01 12:28:33;;;;;;;3.30;3.10;;;19.90;99.90;;;;;;5223614;28;20695;-51
2022/07/01 12:31:06;;;;;;;2.77;2.67;;;20.20;99.90;;;;;;5199096;28;20211;-47
2022/07/01 12:33:39;;;;;;;4.47;4.13;;;20.30;99.90;;;;;;5190854;28;20454;-50
2022/07/01 12:36:12;;;;;;;20.87;10.47;;;20.30;99.90;;;;;;5214813;28;20996;-49
2022/07/01 12:38:43;;;;;;;5.17;4.67;;;20.20;99.90;;;;;;5210933;28;20498;-48
2022/07/01 12:41:28;;;;;;;4.07;3.87;;;20.10;99.90;;;;;;5215268;28;20938;-52
2022/07/01 12:43:59;;;;;;;5.40;4.90;;;19.90;99.90;;;;;;5216396;28;20489;-48
2022/07/01 12:46:31;;;;;;;10.30;5.30;;;19.80;99.90;;;;;;5200428;28;20476;-54
2022/07/01 12:49:01;;;;;;;5.50;4.20;;;19.80;99.90;;;;;;5210453;28;20804;-49
2022/07/01 12:51:32;;;;;;;5.70;4.60;;;19.70;99.90;;;;;;5198811;28;20524;-50
2022/07/01 12:54:03;;;;;;;3.60;3.33;;;19.70;99.90;;;;;;5216979;28;20597;-50
2022/07/01 12:56:33;;;;;;;4.00;3.70;;;19.70;99.90;;;;;;5205439;28;20210;-48
2022/07/01 12:59:04;;;;;;;3.33;3.23;;;19.80;99.90;;;;;;5208843;28;20207;-51
2022/07/01 13:01:35;;;;;;;3.53;3.33;;;19.80;99.90;;;;;;5191816;28;20563;-48
2022/07/01 13:04:05;;;;;;;3.83;3.53;;;19.80;99.90;;;;;;5211098;28;20208;-49
2022/07/01 13:06:36;;;;;;;3.73;3.53;;;19.80;99.90;;;;;;5205743;28;20246;-52
2022/07/01 13:09:06;;;;;;;3.73;3.43;;;19.50;99.90;;;;;;5214949;28;20557;-50
2022/07/01 13:11:37;;;;;;;4.50;4.20;;;19.50;99.90;;;;;;5220771;28;20332;-49
2022/07/01 13:14:07;;;;;;;3.50;3.30;;;19.70;99.90;;;;;;5216678;28;20203;-49
2022/07/01 13:16:38;;;;;;;3.67;3.57;;;19.60;99.90;;;;;;5193893;28;20184;-51